Time;durP1;ratioP1;P1;durP2;ratioP2;P2;SDS_P1;SDS_P2;PMS_P1;PMS_P2;Temp;Humidity;BMP_temperature;BMP_pressure;BME280_temperature;BME280_humidity;BME280_pressure;Samples;Min_cycle;Max_cycle;Signal;HPM_P1;HPM_P2
2022/03/31 00:03:12;;;;;;;12.10;5.75;;;;;;;6.70;82.25;94261.31;10329927;28;97172;-64
2022/03/31 00:08:16;;;;;;;12.27;6.70;;;;;;;6.70;82.33;94254.31;10329154;28;96912;-62
2022/03/31 00:13:23;;;;;;;8.80;4.97;;;;;;;6.80;82.18;94251.50;10325427;28;98504;-62
2022/03/31 00:18:27;;;;;;;11.48;5.65;;;;;;;6.85;81.92;94239.63;10322245;28;99317;-63
2022/03/31 00:23:31;;;;;;;10.90;5.63;;;;;;;6.88;81.63;94240.25;10312087;28;99953;-62
2022/03/31 00:28:36;;;;;;;10.82;4.97;;;;;;;6.93;81.75;94232.75;10311667;28;99871;-62
2022/03/31 00:33:38;;;;;;;11.98;5.07;;;;;;;7.02;81.64;94223.91;10321907;28;96800;-63
2022/03/31 00:39:28;;;;;;;12.88;6.03;;;;;;;7.01;81.49;94214.53;10324331;28;96755;-62
2022/03/31 00:44:07;;;;;;;12.50;6.68;;;;;;;6.93;81.68;94209.38;10318007;28;96970;-63
2022/03/31 00:49:09;;;;;;;12.15;6.15;;;;;;;6.76;81.58;94193.13;10319064;28;97012;-62
2022/03/31 00:54:14;;;;;;;13.60;5.90;;;;;;;6.87;81.60;94190.13;10317007;28;97209;-63
2022/03/31 00:59:19;;;;;;;12.20;5.47;;;;;;;6.85;81.64;94182.50;10301501;28;97105;-63
2022/03/31 01:04:21;;;;;;;13.03;4.63;;;;;;;6.87;81.43;94178.91;10316132;28;99596;-62
2022/03/31 01:09:25;;;;;;;8.30;3.63;;;;;;;6.88;81.33;94165.78;10312435;28;96752;-62
2022/03/31 01:14:30;;;;;;;8.35;4.35;;;;;;;6.86;81.47;94172.94;10319023;28;97138;-63
2022/03/31 01:19:33;;;;;;;10.48;5.80;;;;;;;6.78;81.58;94160.00;10313977;28;98347;-62
2022/03/31 01:24:38;;;;;;;10.98;5.35;;;;;;;6.76;81.88;94155.00;10324792;28;98375;-62
2022/03/31 01:29:41;;;;;;;10.35;3.95;;;;;;;6.68;82.26;94156.84;10327880;28;99863;-63
2022/03/31 01:34:45;;;;;;;9.98;3.88;;;;;;;6.78;82.12;94153.06;10321052;28;96875;-62
2022/03/31 01:39:49;;;;;;;8.85;3.88;;;;;;;6.90;81.85;94145.63;10318660;28;100438;-63
2022/03/31 01:44:52;;;;;;;11.27;3.47;;;;;;;6.98;81.63;94148.19;10327817;28;97664;-62
2022/03/31 01:49:55;;;;;;;10.45;3.95;;;;;;;7.01;81.41;94139.25;10328899;28;98430;-63
2022/03/31 01:54:59;;;;;;;6.07;3.22;;;;;;;7.08;81.52;94140.16;10324727;28;98850;-62
2022/03/31 02:00:02;;;;;;;6.03;2.80;;;;;;;7.11;81.44;94137.22;10322824;28;98529;-62
2022/03/31 02:05:07;;;;;;;8.27;3.70;;;;;;;7.22;81.15;94136.75;10332545;28;96739;-63
2022/03/31 02:10:13;;;;;;;10.02;4.28;;;;;;;7.27;80.90;94122.41;10328865;28;100377;-62
2022/03/31 02:15:16;;;;;;;8.07;3.58;;;;;;;7.26;80.93;94121.63;10326722;28;97709;-62
2022/03/31 02:20:19;;;;;;;8.35;3.13;;;;;;;7.14;81.01;94113.47;10329020;28;98481;-63
2022/03/31 02:25:23;;;;;;;6.25;3.35;;;;;;;6.96;81.96;94120.81;10314314;28;98675;-62
2022/03/31 02:30:27;;;;;;;9.70;3.80;;;;;;;6.97;81.55;94115.44;10312524;28;98582;-62
2022/03/31 02:35:30;;;;;;;9.15;3.47;;;;;;;7.05;81.66;94114.53;10310787;28;100209;-62
2022/03/31 02:40:34;;;;;;;7.82;3.45;;;;;;;7.14;81.29;94097.88;10329364;28;100089;-63
2022/03/31 02:45:37;;;;;;;5.85;3.25;;;;;;;7.26;81.28;94102.63;10323490;28;96790;-63
2022/03/31 02:50:40;;;;;;;9.27;4.00;;;;;;;7.19;81.36;94095.56;10316334;28;96865;-62
2022/03/31 02:55:44;;;;;;;8.50;4.68;;;;;;;6.96;82.06;94097.44;10325633;28;96811;-62
2022/03/31 03:00:48;;;;;;;7.38;3.75;;;;;;;6.83;82.25;94088.47;10318676;28;102073;-62
2022/03/31 03:05:52;;;;;;;13.47;4.37;;;;;;;6.76;82.57;94089.31;10322894;28;98989;-62
2022/03/31 03:10:57;;;;;;;8.10;3.90;;;;;;;6.72;83.12;94088.06;10306522;28;99917;-62
2022/03/31 03:16:01;;;;;;;;;;;;;;;6.73;82.76;94080.13;10310447;28;98202;-62
2022/03/31 03:21:06;;;;;;;10.48;4.50;;;;;;;6.78;82.46;94075.22;10326652;28;97635;-62
2022/03/31 03:26:11;;;;;;;7.38;4.55;;;;;;;6.93;82.18;94070.00;10324291;28;96887;-63
2022/03/31 03:31:14;;;;;;;11.15;4.68;;;;;;;6.81;82.75;94061.84;10320314;28;97422;-63
2022/03/31 03:36:17;;;;;;;13.45;4.95;;;;;;;6.65;83.22;94067.22;10316839;28;96932;-63
2022/03/31 03:41:21;;;;;;;11.07;5.93;;;;;;;6.71;83.46;94061.34;10319494;28;97061;-62
2022/03/31 03:46:24;;;;;;;10.20;4.70;;;;;;;6.78;83.35;94062.22;10325191;28;98798;-63
2022/03/31 03:51:27;;;;;;;12.65;6.13;;;;;;;6.78;83.47;94058.81;10319487;28;97821;-62
2022/03/31 03:56:31;;;;;;;8.05;4.80;;;;;;;6.94;83.11;94056.06;10316002;28;97804;-62
2022/03/31 04:01:34;;;;;;;9.00;5.53;;;;;;;6.96;83.50;94058.50;10316644;28;97587;-62
2022/03/31 04:06:38;;;;;;;9.90;5.30;;;;;;;6.94;83.38;94044.88;10310032;28;96812;-64
2022/03/31 04:11:42;;;;;;;10.57;5.57;;;;;;;7.04;83.36;94048.00;10315359;28;97608;-62
2022/03/31 04:16:45;;;;;;;7.82;6.03;;;;;;;7.14;83.06;94050.34;10304455;28;96869;-63
2022/03/31 04:21:48;;;;;;;10.50;5.88;;;;;;;7.07;83.15;94041.66;10317848;28;98454;-62
2022/03/31 04:26:52;;;;;;;12.98;5.72;;;;;;;7.13;83.35;94043.56;10323824;28;97006;-62
2022/03/31 04:31:55;;;;;;;10.80;6.00;;;;;;;7.04;83.41;94050.59;10325317;28;97796;-62
2022/03/31 04:36:58;;;;;;;14.50;5.40;;;;;;;6.91;83.46;94035.66;10316150;28;98273;-62
2022/03/31 04:42:03;;;;;;;10.85;5.35;;;;;;;6.84;83.56;94043.34;10315796;28;96918;-62
2022/03/31 04:47:11;;;;;;;11.13;6.00;;;;;;;6.84;83.66;94037.34;10322723;28;98970;-62
2022/03/31 04:52:14;;;;;;;7.72;4.82;;;;;;;6.84;83.24;94032.16;10317392;28;96967;-62
2022/03/31 04:57:20;;;;;;;10.05;5.70;;;;;;;6.85;83.52;94037.16;10323304;28;96911;-62
2022/03/31 05:02:23;;;;;;;12.95;5.88;;;;;;;6.83;83.20;94043.50;10337707;28;96791;-63
2022/03/31 05:07:26;;;;;;;11.90;7.13;;;;;;;6.70;83.53;94041.53;10340458;28;96767;-62
2022/03/31 05:12:30;;;;;;;13.35;7.00;;;;;;;6.57;83.62;94042.16;10331223;28;97252;-62
2022/03/31 05:17:34;;;;;;;17.07;7.67;;;;;;;6.46;83.68;94022.63;10330534;28;98352;-62
2022/03/31 05:22:37;;;;;;;16.48;7.03;;;;;;;6.40;84.19;94038.09;10326060;28;97173;-64
2022/03/31 05:27:46;;;;;;;18.20;7.95;;;;;;;6.27;84.30;94023.94;10308179;28;97576;-62
2022/03/31 05:32:51;;;;;;;14.07;7.40;;;;;;;6.30;84.21;94028.00;10327840;28;98354;-63
2022/03/31 05:37:55;;;;;;;20.13;9.13;;;;;;;6.17;84.67;94032.94;10324744;28;96926;-62
2022/03/31 05:42:59;;;;;;;15.18;7.50;;;;;;;6.14;84.79;94022.94;10326862;28;97228;-62
2022/03/31 05:48:02;;;;;;;16.48;8.15;;;;;;;6.27;84.84;94028.31;10324271;28;96847;-62
2022/03/31 05:53:05;;;;;;;17.05;7.97;;;;;;;6.30;84.67;94029.78;10326998;28;98865;-62
2022/03/31 05:58:09;;;;;;;14.80;7.93;;;;;;;6.33;84.51;94037.19;10327376;28;98244;-63
2022/03/31 06:03:13;;;;;;;13.85;7.63;;;;;;;6.25;84.21;94035.47;10326970;28;97593;-62
2022/03/31 06:08:17;;;;;;;15.90;6.75;;;;;;;6.33;84.75;94025.03;10328709;28;96897;-62
2022/03/31 06:13:22;;;;;;;15.73;8.75;;;;;;;6.39;84.43;94026.13;10326286;28;97141;-62
2022/03/31 06:18:25;;;;;;;19.35;8.30;;;;;;;6.44;84.65;94024.59;10332661;28;98616;-63
2022/03/31 06:23:28;;;;;;;19.10;7.65;;;;;;;6.68;84.15;94020.16;10318207;28;96982;-62
2022/03/31 06:28:32;;;;;;;15.27;7.80;;;;;;;6.86;83.96;94035.38;10330619;28;96913;-62
2022/03/31 06:33:37;;;;;;;16.23;7.60;;;;;;;6.99;83.64;94021.81;10317311;28;98297;-62
2022/03/31 06:38:39;;;;;;;11.25;6.80;;;;;;;6.87;84.14;94031.81;10325829;28;100358;-62
2022/03/31 06:43:49;;;;;;;13.25;7.90;;;;;;;7.01;84.05;94027.63;10327896;28;96800;-62
2022/03/31 06:48:52;;;;;;;14.82;7.00;;;;;;;7.27;83.73;94029.75;10331970;28;99299;-62
2022/03/31 06:53:57;;;;;;;13.70;7.60;;;;;;;7.55;83.55;94029.84;10332848;28;97636;-62
2022/03/31 06:59:05;;;;;;;15.45;7.75;;;;;;;7.68;83.26;94023.97;10335229;28;96829;-62
2022/03/31 07:04:10;;;;;;;14.32;7.47;;;;;;;7.89;83.48;94023.22;10332587;28;97005;-62
2022/03/31 07:09:13;;;;;;;12.73;6.30;;;;;;;8.32;82.47;94023.16;10332876;28;97208;-62
2022/03/31 07:14:17;;;;;;;17.10;6.60;;;;;;;8.67;81.91;94040.63;10329459;28;96913;-62
2022/03/31 07:19:20;;;;;;;14.27;5.60;;;;;;;8.77;80.34;94032.50;10314600;28;96974;-62
2022/03/31 07:24:23;;;;;;;15.32;6.30;;;;;;;8.96;79.66;94029.19;10326253;28;96762;-63
2022/03/31 07:29:28;;;;;;;14.50;5.90;;;;;;;9.04;79.64;94021.25;10327674;28;99092;-63
2022/03/31 07:34:31;;;;;;;12.68;6.63;;;;;;;9.05;79.33;94028.03;10328477;28;97627;-62
2022/03/31 07:39:35;;;;;;;14.85;5.80;;;;;;;9.16;78.45;94028.50;10314640;28;97359;-62
2022/03/31 07:44:41;;;;;;;18.63;5.63;;;;;;;9.23;78.08;94034.56;10302715;28;96878;-62
2022/03/31 07:49:44;;;;;;;20.00;5.73;;;;;;;9.38;78.07;94032.59;10322490;28;96808;-62
2022/03/31 07:54:46;;;;;;;17.75;6.00;;;;;;;9.29;77.42;94038.97;10306948;28;96714;-62
2022/03/31 07:59:51;;;;;;;20.73;6.53;;;;;;;9.22;77.37;94038.16;10308442;28;96917;-62
2022/03/31 08:04:54;;;;;;;15.20;5.67;;;;;;;9.30;78.09;94035.41;10314054;28;97530;-62
2022/03/31 08:09:57;;;;;;;17.20;5.80;;;;;;;9.50;77.13;94032.88;10324006;28;97945;-62
2022/03/31 08:15:01;;;;;;;16.10;5.88;;;;;;;9.44;76.87;94031.88;10328704;28;99001;-62
2022/03/31 08:20:05;;;;;;;13.40;5.90;;;;;;;9.31;76.12;94036.97;10300524;28;96865;-63
2022/03/31 08:25:10;;;;;;;16.80;6.03;;;;;;;9.08;75.80;94032.88;10322960;28;97062;-62
2022/03/31 08:30:18;;;;;;;14.20;5.68;;;;;;;8.99;76.36;94034.03;10325697;28;98090;-62
2022/03/31 08:35:24;;;;;;;22.10;6.47;;;;;;;9.04;76.95;94036.06;10302670;28;98772;-62
2022/03/31 08:40:27;;;;;;;14.68;5.72;;;;;;;9.09;76.46;94038.91;10331348;28;96861;-62
2022/03/31 08:45:35;;;;;;;15.32;5.35;;;;;;;9.39;75.11;94039.44;10320465;28;96897;-62
2022/03/31 08:50:38;;;;;;;18.85;6.03;;;;;;;9.44;75.08;94042.28;10312980;28;97687;-62
2022/03/31 08:55:41;;;;;;;14.40;5.13;;;;;;;9.33;74.53;94049.81;10317838;28;96825;-62
2022/03/31 09:00:46;;;;;;;13.98;6.20;;;;;;;9.34;74.12;94052.22;10308906;28;96871;-63
2022/03/31 09:05:51;;;;;;;31.03;16.27;;;;;;;9.33;74.68;94055.81;10309561;28;96889;-62
2022/03/31 09:11:00;;;;;;;16.42;6.85;;;;;;;9.42;74.39;94049.50;10317152;28;96913;-62
2022/03/31 09:16:06;;;;;;;15.85;5.68;;;;;;;9.47;74.31;94047.13;10305877;28;100093;-62
2022/03/31 09:21:12;;;;;;;14.27;5.88;;;;;;;9.56;74.23;94045.16;10318542;28;96857;-62
2022/03/31 09:26:17;;;;;;;12.50;4.97;;;;;;;9.70;73.84;94045.16;10312076;28;98125;-62
2022/03/31 09:31:25;;;;;;;14.27;5.05;;;;;;;9.94;73.76;94043.81;10329857;28;99830;-63
2022/03/31 09:36:28;;;;;;;11.10;5.20;;;;;;;10.22;73.65;94034.06;10325742;28;98156;-62
2022/03/31 09:41:33;;;;;;;8.95;4.97;;;;;;;10.43;72.63;94034.88;10298652;28;99973;-62
2022/03/31 09:46:39;;;;;;;14.07;5.00;;;;;;;10.61;72.77;94037.66;10315370;28;98488;-62
2022/03/31 09:51:44;;;;;;;12.30;4.63;;;;;;;10.87;71.46;94028.19;10320641;28;97575;-64
2022/03/31 09:56:47;;;;;;;10.07;4.70;;;;;;;11.02;71.27;94024.56;10323441;28;96762;-63
2022/03/31 10:01:51;;;;;;;13.77;4.47;;;;;;;11.30;69.85;94027.69;10321701;28;97789;-62
2022/03/31 10:06:56;;;;;;;15.27;5.68;;;;;;;11.62;70.44;94022.53;10312624;28;97030;-62
2022/03/31 10:12:03;;;;;;;13.23;5.18;;;;;;;12.03;66.97;94018.72;10320386;28;96950;-62
2022/03/31 10:17:09;;;;;;;15.45;5.28;;;;;;;12.52;65.72;94010.31;10318867;28;96894;-63
2022/03/31 10:24:41;;;;;;;14.88;5.10;;;;;;;12.62;63.34;94005.38;10320089;28;96908;-62
2022/03/31 10:27:45;;;;;;;12.18;4.90;;;;;;;12.38;60.39;93999.94;10312084;28;97550;-62
2022/03/31 10:32:55;;;;;;;11.95;5.65;;;;;;;12.19;59.10;93995.66;10304565;28;101782;-63
2022/03/31 10:38:10;;;;;;;13.55;5.20;;;;;;;12.16;58.11;93996.06;10301945;28;98190;-62
2022/03/31 10:43:21;;;;;;;12.50;5.07;;;;;;;12.12;59.29;93980.00;10323421;28;98388;-62
2022/03/31 10:48:27;;;;;;;13.77;5.22;;;;;;;12.10;58.32;93984.66;10320705;28;97338;-62
2022/03/31 10:53:31;;;;;;;15.32;5.75;;;;;;;12.14;57.59;93982.41;10335977;28;97402;-63
2022/03/31 10:58:34;;;;;;;14.40;5.80;;;;;;;12.44;57.88;93967.66;10321697;28;99047;-63
2022/03/31 11:03:38;;;;;;;16.75;5.70;;;;;;;12.44;58.07;93972.91;10317664;28;97807;-62
2022/03/31 11:08:43;;;;;;;16.58;5.80;;;;;;;12.76;58.40;93959.72;10322628;28;96809;-63
2022/03/31 11:13:46;;;;;;;16.80;6.07;;;;;;;12.95;56.31;93951.91;10324135;28;96796;-63
2022/03/31 11:18:56;;;;;;;14.75;5.93;;;;;;;12.98;56.70;93943.59;10326086;28;97388;-62
2022/03/31 11:23:58;;;;;;;15.50;5.85;;;;;;;12.98;57.68;93946.22;10322840;28;96920;-63
2022/03/31 11:29:04;;;;;;;16.25;6.10;;;;;;;13.18;56.36;93946.78;10332868;28;99061;-62
2022/03/31 11:34:15;;;;;;;;;;;;;;;13.10;57.65;93934.00;10333304;28;96736;-62
2022/03/31 11:39:19;;;;;;;14.23;5.28;;;;;;;12.47;56.31;93924.53;10330287;28;98499;-63
2022/03/31 11:44:24;;;;;;;13.65;5.80;;;;;;;11.54;57.29;93936.53;10300674;28;96766;-62
2022/03/31 11:49:29;;;;;;;13.73;5.78;;;;;;;11.23;57.31;93947.72;10331993;28;96789;-62
2022/03/31 11:54:32;;;;;;;10.50;4.53;;;;;;;10.59;58.25;93948.28;10328246;28;97970;-62
2022/03/31 11:59:36;;;;;;;11.15;5.13;;;;;;;10.37;60.33;93962.56;10300823;28;97594;-62
2022/03/31 12:04:43;;;;;;;9.50;4.40;;;;;;;10.43;61.12;93964.41;10331438;28;96767;-62
2022/03/31 12:09:48;;;;;;;8.98;3.45;;;;;;;10.48;60.39;93963.75;10323276;28;96767;-62
2022/03/31 12:14:56;;;;;;;10.05;3.60;;;;;;;10.80;60.77;93962.09;10302805;28;96903;-63
2022/03/31 12:20:00;;;;;;;9.77;3.90;;;;;;;10.96;60.08;93945.19;10298454;28;96884;-62
2022/03/31 12:25:04;;;;;;;9.17;3.87;;;;;;;11.11;60.08;93943.13;10313576;28;96787;-63
2022/03/31 12:30:08;;;;;;;11.10;4.00;;;;;;;11.83;59.23;93935.13;10330650;28;96727;-63
2022/03/31 12:35:12;;;;;;;8.73;3.53;;;;;;;12.64;57.53;93927.38;10329963;28;97570;-63
2022/03/31 12:40:17;;;;;;;6.15;3.55;;;;;;;13.11;57.71;93938.19;10329645;28;96967;-62
2022/03/31 12:45:21;;;;;;;;;;;;;;;13.49;58.13;93939.75;10330775;28;96880;-63
2022/03/31 12:50:28;;;;;;;7.32;3.40;;;;;;;13.92;56.29;93944.00;10325574;28;99829;-63
2022/03/31 12:55:32;;;;;;;7.85;3.53;;;;;;;13.91;55.87;93941.59;10328259;28;96940;-62
2022/03/31 13:00:36;;;;;;;9.10;3.70;;;;;;;13.86;56.52;93934.38;10314657;28;97872;-62
2022/03/31 13:05:45;;;;;;;5.28;2.10;;;;;;;13.25;54.82;93930.97;10314407;28;96859;-62
2022/03/31 13:10:51;;;;;;;3.83;1.20;;;;;;;12.19;53.10;93944.09;10305989;28;97393;-62
2022/03/31 13:15:54;;;;;;;0.10;0.00;;;;;;;10.49;55.27;93954.94;10306000;28;98178;-62
2022/03/31 13:20:58;;;;;;;0.13;0.10;;;;;;;9.95;56.36;93959.38;10332038;28;100054;-62
2022/03/31 13:26:01;;;;;;;0.45;0.00;;;;;;;9.48;57.86;93947.06;10310884;28;96905;-62
2022/03/31 13:31:05;;;;;;;0.20;0.00;;;;;;;9.51;59.97;93945.09;10312710;28;96793;-62
2022/03/31 13:36:10;;;;;;;4.07;1.17;;;;;;;9.74;60.04;93942.91;10304963;28;96693;-62
2022/03/31 13:41:12;;;;;;;0.83;0.20;;;;;;;9.81;60.66;93948.94;10318397;28;96894;-63
2022/03/31 13:46:15;;;;;;;0.03;0.00;;;;;;;9.11;59.03;93951.75;10313174;28;97027;-62
2022/03/31 13:51:20;;;;;;;0.00;0.00;;;;;;;8.98;59.81;93962.09;10324772;28;97023;-62
2022/03/31 13:56:23;;;;;;;0.10;0.05;;;;;;;9.25;60.37;93949.19;10317451;28;96763;-62
2022/03/31 14:01:26;;;;;;;0.10;0.10;;;;;;;9.60;59.38;93952.50;10310784;28;96846;-63
2022/03/31 14:06:31;;;;;;;0.60;0.10;;;;;;;9.80;59.25;93944.72;10332395;28;97079;-62
2022/03/31 14:11:34;;;;;;;0.10;0.03;;;;;;;9.78;59.80;93961.56;10314159;28;97222;-62
2022/03/31 14:16:40;;;;;;;0.88;0.20;;;;;;;9.72;60.79;93959.75;10327232;28;97678;-62
2022/03/31 14:21:48;;;;;;;0.45;0.10;;;;;;;9.84;59.50;93958.97;10332618;28;96857;-62
2022/03/31 14:26:51;;;;;;;0.20;0.10;;;;;;;10.01;58.95;93933.31;10310034;28;96901;-63
2022/03/31 14:31:54;;;;;;;0.00;0.00;;;;;;;10.08;57.47;93953.34;10334189;28;96888;-62
2022/03/31 14:36:58;;;;;;;0.57;0.00;;;;;;;9.81;56.75;93961.97;10333025;28;97790;-62
2022/03/31 14:42:04;;;;;;;0.10;0.10;;;;;;;9.68;56.47;93977.59;10313798;28;98650;-62
2022/03/31 14:47:07;;;;;;;0.95;0.10;;;;;;;9.51;55.54;93961.53;10306564;28;96793;-62
2022/03/31 14:52:11;;;;;;;0.28;0.17;;;;;;;9.46;55.12;93982.94;10319789;28;96987;-62
2022/03/31 14:57:14;;;;;;;0.70;0.40;;;;;;;9.05;56.48;93983.75;10323407;28;97877;-62
2022/03/31 15:02:17;;;;;;;0.60;0.40;;;;;;;9.10;56.61;93968.34;10337070;28;97810;-62
2022/03/31 15:07:25;;;;;;;0.60;0.30;;;;;;;9.12;57.72;93986.41;10323634;28;98462;-62
2022/03/31 15:17:48;;;;;;;0.63;0.40;;;;;;;8.86;57.20;93992.28;10314478;28;97019;-62
2022/03/31 15:22:53;;;;;;;0.73;0.40;;;;;;;8.99;57.12;93992.38;10318179;28;97510;-62
2022/03/31 15:27:56;;;;;;;0.20;0.20;;;;;;;9.01;57.84;93992.97;10313579;28;97136;-62
2022/03/31 15:32:59;;;;;;;0.10;0.10;;;;;;;8.82;56.93;94007.50;10313516;28;97112;-62
2022/03/31 15:38:04;;;;;;;0.10;0.10;;;;;;;8.56;56.48;94018.53;10315687;28;96793;-62
2022/03/31 15:43:07;;;;;;;0.20;0.10;;;;;;;8.44;58.38;94012.25;10331153;28;96695;-62
2022/03/31 15:48:10;;;;;;;1.38;0.85;;;;;;;8.55;57.21;94022.13;10332418;28;97134;-62
2022/03/31 15:53:17;;;;;;;1.35;0.88;;;;;;;8.64;56.09;94031.41;10314138;28;97337;-62
2022/03/31 15:58:20;;;;;;;1.48;1.10;;;;;;;8.38;57.03;94041.63;10308563;28;96859;-62
2022/03/31 16:03:24;;;;;;;3.60;2.13;;;;;;;8.30;56.93;94045.97;10317801;28;96811;-62
2022/03/31 16:08:28;;;;;;;4.03;3.00;;;;;;;7.81;57.65;94051.91;10314897;28;96761;-63
2022/03/31 16:13:31;;;;;;;2.93;2.00;;;;;;;7.54;57.59;94049.03;10314702;28;97286;-62
2022/03/31 16:18:34;;;;;;;3.13;2.20;;;;;;;7.48;57.39;94062.75;10330923;28;101590;-62
2022/03/31 16:23:45;;;;;;;2.42;1.67;;;;;;;7.35;57.91;94067.78;10306745;28;97112;-62
2022/03/31 16:28:50;;;;;;;3.20;2.35;;;;;;;7.37;57.69;94055.41;10327966;28;98536;-62
2022/03/31 16:33:53;;;;;;;2.53;1.90;;;;;;;7.33;57.68;94077.56;10325604;28;97799;-62
2022/03/31 16:39:00;;;;;;;4.43;2.95;;;;;;;7.09;58.75;94063.06;10312167;28;99759;-61
2022/03/31 16:44:03;;;;;;;3.03;2.00;;;;;;;6.90;59.18;94090.31;10315047;28;96806;-62
2022/03/31 16:49:07;;;;;;;3.20;2.30;;;;;;;6.98;58.87;94088.47;10329464;28;96925;-62
2022/03/31 16:54:13;;;;;;;4.35;3.10;;;;;;;6.96;58.31;94085.25;10309981;28;96841;-62
2022/03/31 16:59:16;;;;;;;4.95;3.10;;;;;;;6.80;58.50;94098.38;10312635;28;97316;-62
2022/03/31 17:04:19;;;;;;;8.38;5.88;;;;;;;6.54;59.04;94109.97;10315297;28;98083;-62
2022/03/31 17:09:23;;;;;;;9.43;6.72;;;;;;;6.53;59.02;94102.34;10323649;28;98612;-61
2022/03/31 17:14:26;;;;;;;10.00;6.97;;;;;;;6.55;57.95;94102.97;10310383;28;96771;-62
2022/03/31 17:19:29;;;;;;;10.45;7.88;;;;;;;6.59;57.74;94104.22;10322838;28;97477;-63
2022/03/31 17:24:34;;;;;;;11.93;8.00;;;;;;;6.68;57.04;94115.34;10319031;28;97289;-62
2022/03/31 17:29:36;;;;;;;12.63;9.10;;;;;;;6.63;56.57;94124.47;10308952;28;99830;-62
2022/03/31 17:34:39;;;;;;;17.83;11.93;;;;;;;6.55;57.62;94128.91;10335221;28;96959;-62
2022/03/31 17:39:44;;;;;;;18.77;12.73;;;;;;;6.44;57.81;94122.38;10334305;28;97690;-62
2022/03/31 17:44:46;;;;;;;15.35;10.13;;;;;;;6.45;55.84;94123.97;10335841;28;96770;-62
2022/03/31 17:49:49;;;;;;;18.48;12.50;;;;;;;6.38;55.63;94138.59;10311885;28;98028;-62
2022/03/31 17:54:55;;;;;;;22.02;14.35;;;;;;;6.28;56.54;94141.44;10316449;28;98693;-62
2022/03/31 17:59:58;;;;;;;26.70;16.30;;;;;;;6.27;56.53;94142.41;10325645;28;97421;-61
2022/03/31 18:05:01;;;;;;;22.73;13.77;;;;;;;6.23;56.33;94147.16;10309904;28;96907;-62
2022/03/31 18:10:06;;;;;;;24.52;14.70;;;;;;;6.25;57.08;94147.78;10311215;28;96786;-62
2022/03/31 18:15:09;;;;;;;;;;;;;;;6.25;56.43;94141.78;10330392;28;96955;-62
2022/03/31 18:20:20;;;;;;;22.42;13.98;;;;;;;6.25;56.91;94139.19;10316075;28;98829;-61
2022/03/31 18:25:24;;;;;;;21.48;14.75;;;;;;;6.18;56.50;94138.28;10324280;28;96812;-61
2022/03/31 18:35:49;;;;;;;24.95;15.18;;;;;;;6.25;55.44;94150.38;10317072;28;96687;-61
2022/03/31 18:40:57;;;;;;;24.08;15.95;;;;;;;6.17;56.39;94147.03;10329189;28;96824;-62
2022/03/31 18:46:00;;;;;;;23.52;14.77;;;;;;;6.03;57.01;94156.34;10323300;28;96772;-62
2022/03/31 18:51:05;;;;;;;35.45;20.73;;;;;;;6.00;56.85;94159.25;10322099;28;98437;-61
2022/03/31 18:56:09;;;;;;;25.23;16.25;;;;;;;5.94;57.44;94168.53;10304772;28;96963;-62
2022/03/31 19:01:13;;;;;;;48.63;24.08;;;;;;;5.89;57.99;94179.41;10315793;28;98380;-62
2022/03/31 19:11:42;;;;;;;25.38;15.43;;;;;;;5.82;58.30;94196.59;10332296;28;96931;-63
2022/03/31 19:16:45;;;;;;;27.10;15.30;;;;;;;5.77;58.53;94208.47;10332863;28;96981;-62
2022/03/31 19:21:48;;;;;;;26.85;17.02;;;;;;;5.77;58.64;94211.06;10314617;28;98665;-62
2022/03/31 19:26:53;;;;;;;26.63;16.27;;;;;;;5.73;59.08;94218.34;10303974;28;96906;-63
2022/03/31 19:31:56;;;;;;;24.50;16.47;;;;;;;5.59;59.66;94217.25;10319114;28;97661;-62
2022/03/31 19:36:59;;;;;;;25.50;16.45;;;;;;;5.46;60.03;94219.56;10315716;28;99115;-61
2022/03/31 19:42:23;;;;;;;31.48;19.67;;;;;;;5.42;59.90;94221.69;10325182;28;100002;-62
2022/03/31 19:47:28;;;;;;;24.95;15.52;;;;;;;5.34;60.73;94230.28;10320800;28;96889;-61
2022/03/31 19:52:31;;;;;;;25.87;15.60;;;;;;;5.34;60.91;94230.28;10318540;28;96797;-63
2022/03/31 19:57:35;;;;;;;26.70;16.83;;;;;;;5.43;60.64;94232.88;10305786;28;97006;-62
2022/03/31 20:02:38;;;;;;;28.57;17.13;;;;;;;5.44;60.29;94231.88;10329559;28;97198;-62
2022/03/31 20:07:41;;;;;;;22.38;14.55;;;;;;;5.40;60.49;94238.38;10317915;28;99080;-62
2022/03/31 20:12:46;;;;;;;24.58;15.57;;;;;;;5.30;60.97;94233.34;10326855;28;96822;-62
2022/03/31 20:17:50;;;;;;;24.70;14.53;;;;;;;5.22;60.95;94225.59;10310850;28;96980;-62
2022/03/31 20:22:53;;;;;;;22.13;13.63;;;;;;;5.09;61.96;94226.09;10305678;28;99904;-62
2022/03/31 20:27:57;;;;;;;21.95;14.38;;;;;;;5.10;61.79;94230.31;10321546;28;96993;-62
2022/03/31 20:33:00;;;;;;;22.92;15.13;;;;;;;5.11;61.92;94224.16;10329801;28;97713;-62
2022/03/31 20:38:03;;;;;;;24.92;15.05;;;;;;;5.03;61.39;94214.63;10315658;28;96744;-62
2022/03/31 20:43:09;;;;;;;25.20;15.00;;;;;;;5.07;61.33;94222.88;10316175;28;98686;-62
2022/03/31 20:48:12;;;;;;;23.63;14.13;;;;;;;5.10;61.48;94222.56;10328953;28;97500;-62
2022/03/31 20:53:16;;;;;;;23.65;15.05;;;;;;;5.05;62.51;94211.88;10315431;28;97007;-62
2022/03/31 20:58:20;;;;;;;24.55;15.68;;;;;;;5.05;63.20;94209.31;10321986;28;97266;-61
2022/03/31 21:03:25;;;;;;;25.98;15.23;;;;;;;5.11;63.13;94208.63;10303633;28;97049;-62
2022/03/31 21:08:27;;;;;;;24.55;15.75;;;;;;;5.14;62.83;94197.97;10312975;28;96770;-62
2022/03/31 21:13:32;;;;;;;25.33;15.60;;;;;;;5.08;63.76;94198.59;10329530;28;97006;-62
2022/03/31 21:18:35;;;;;;;22.70;14.20;;;;;;;4.85;64.93;94204.44;10312439;28;97041;-62
2022/03/31 21:23:39;;;;;;;20.58;13.60;;;;;;;4.71;64.98;94197.34;10314880;28;98934;-62
2022/03/31 21:28:44;;;;;;;25.23;14.05;;;;;;;4.60;65.90;94195.91;10327557;28;97204;-62
2022/03/31 21:33:47;;;;;;;21.85;13.98;;;;;;;4.51;66.55;94202.84;10309617;28;96775;-62
2022/03/31 21:38:50;;;;;;;21.85;13.57;;;;;;;4.44;67.37;94196.69;10311046;28;96787;-62
2022/03/31 21:43:56;;;;;;;23.40;13.55;;;;;;;4.44;68.40;94193.28;10314859;28;98715;-61
2022/03/31 21:48:58;;;;;;;;;;;;;;;4.41;67.28;94191.84;10314353;28;96915;-62
2022/03/31 21:54:01;;;;;;;21.92;13.27;;;;;;;4.37;67.82;94193.16;10324427;28;98676;-62
2022/03/31 21:59:08;;;;;;;22.90;13.70;;;;;;;4.38;68.60;94189.56;10307291;28;96775;-61
2022/03/31 22:04:11;;;;;;;21.95;12.80;;;;;;;4.44;68.76;94194.13;10311692;28;97036;-62
2022/03/31 22:14:36;;;;;;;21.17;12.43;;;;;;;4.44;69.69;94196.69;10322846;28;97098;-62
2022/03/31 22:19:41;;;;;;;24.13;13.38;;;;;;;4.47;69.96;94206.72;10325080;28;96934;-63
2022/03/31 22:24:45;;;;;;;25.80;15.45;;;;;;;4.36;70.25;94204.44;10327157;28;96864;-62
2022/03/31 22:29:51;;;;;;;25.20;14.57;;;;;;;4.31;70.55;94193.78;10334216;28;96836;-62
2022/03/31 22:34:55;;;;;;;25.38;15.15;;;;;;;4.25;70.33;94197.81;10323700;28;97015;-62
2022/03/31 22:39:57;;;;;;;25.58;14.77;;;;;;;4.36;70.36;94183.75;10327481;28;97129;-62
2022/03/31 22:45:02;;;;;;;20.60;13.88;;;;;;;4.44;70.48;94185.53;10333928;28;96882;-62
2022/03/31 22:50:06;;;;;;;21.63;13.25;;;;;;;4.55;70.69;94183.44;10334410;28;96721;-62
2022/03/31 22:55:09;;;;;;;23.63;13.90;;;;;;;4.60;70.88;94184.75;10331669;28;96707;-62
2022/03/31 23:00:15;;;;;;;22.08;13.88;;;;;;;4.69;70.71;94183.78;10332987;28;98647;-62
2022/03/31 23:05:18;;;;;;;30.70;15.75;;;;;;;4.64;70.80;94175.69;10318585;28;97807;-62
2022/03/31 23:10:21;;;;;;;34.00;17.95;;;;;;;4.59;71.07;94171.00;10331131;28;96911;-62
2022/03/31 23:15:31;;;;;;;28.48;15.95;;;;;;;4.62;70.92;94177.63;10316608;28;96772;-62
2022/03/31 23:20:35;;;;;;;24.70;15.30;;;;;;;4.58;71.39;94167.59;10310672;28;97162;-62
2022/03/31 23:25:38;;;;;;;22.17;13.75;;;;;;;4.68;70.78;94161.44;10323691;28;97182;-62
2022/03/31 23:30:42;;;;;;;22.55;14.30;;;;;;;4.73;71.56;94154.00;10325060;28;97233;-62
2022/03/31 23:35:45;;;;;;;24.85;13.68;;;;;;;4.80;70.96;94152.38;10315391;28;96864;-62
2022/03/31 23:40:48;;;;;;;25.65;14.45;;;;;;;4.78;70.99;94141.41;10320569;28;96934;-62
2022/03/31 23:45:54;;;;;;;24.50;14.95;;;;;;;4.74;71.04;94138.34;10312560;28;101977;-63
2022/03/31 23:50:57;;;;;;;22.83;14.10;;;;;;;4.74;71.11;94132.38;10330829;28;97080;-62
2022/03/31 23:56:00;;;;;;;25.20;15.25;;;;;;;4.68;71.57;94135.59;10311828;28;96848;-61
